FIN4RT EFVA-EFHK
Flight info
| Callsign | FIN4RT |
|---|---|
| Flight time | N/A |
| Altitude | 23000 |
| Route | GUBTU DCT ENETI Y362 LAKUT |
| Aircraft | AT76/M-SDFGIRY/S |
Departure
| Time | 2026-04-29 20:48 |
|---|---|
| Airport | Vaasa Airport (EFVA) |
Arrival
| Time | N/A |
|---|---|
| Airport | Helsinki Vantaa Airport (EFHK) |
| Time | Latitude | Longitude | Altitude | Speed | Heading |
|---|---|---|---|---|---|
| 2026-04-29 20:31 | 63.04330 | 21.76196 | 22 ft | 0 kts | 286° |
| 2026-04-29 20:40 | 63.04330 | 21.76195 | 21 ft | 0 kts | 295° |
| 2026-04-29 20:40 | 63.04331 | 21.76195 | 21 ft | 0 kts | 303° |
| 2026-04-29 20:41 | 63.04333 | 21.76194 | 21 ft | 1 kts | 322° |
| 2026-04-29 20:41 | 63.04337 | 21.76195 | 22 ft | 2 kts | 356° |
| 2026-04-29 20:42 | 63.04396 | 21.76262 | 21 ft | 17 kts | 15° |
| 2026-04-29 20:42 | 63.04543 | 21.76184 | 21 ft | 26 kts | 344° |
| 2026-04-29 20:42 | 63.04733 | 21.76056 | 21 ft | 28 kts | 341° |
| 2026-04-29 20:42 | 63.04871 | 21.76041 | 21 ft | 9 kts | 45° |
| 2026-04-29 20:43 | 63.04872 | 21.76045 | 21 ft | 0 kts | 52° |
| 2026-04-29 20:43 | 63.04876 | 21.76088 | 21 ft | 7 kts | 78° |
| 2026-04-29 20:43 | 63.04896 | 21.76247 | 29 ft | 14 kts | 57° |
| 2026-04-29 20:43 | 63.05012 | 21.76246 | 22 ft | 22 kts | 343° |
| 2026-04-29 20:44 | 63.05177 | 21.76133 | 21 ft | 27 kts | 342° |
| 2026-04-29 20:44 | 63.05302 | 21.76048 | 22 ft | 30 kts | 343° |
| 2026-04-29 20:44 | 63.05505 | 21.75911 | 27 ft | 31 kts | 343° |
| 2026-04-29 20:44 | 63.05722 | 21.75765 | 26 ft | 34 kts | 342° |
| 2026-04-29 20:45 | 63.06033 | 21.75526 | 24 ft | 37 kts | 342° |
| 2026-04-29 20:45 | 63.06115 | 21.75476 | 24 ft | 1 kts | 42° |
| 2026-04-29 20:45 | 63.06115 | 21.75481 | 24 ft | 0 kts | 75° |
| 2026-04-29 20:46 | 63.06115 | 21.75488 | 27 ft | 3 kts | 86° |
| 2026-04-29 20:46 | 63.06061 | 21.75541 | 23 ft | 15 kts | 163° |
| 2026-04-29 20:47 | 63.05952 | 21.75615 | 26 ft | 0 kts | 170° |
| 2026-04-29 20:47 | 63.05815 | 21.75707 | 24 ft | 50 kts | 161° |
| 2026-04-29 20:47 | 63.05273 | 21.76075 | 23 ft | 111 kts | 161° |
| 2026-04-29 20:47 | 63.04409 | 21.76639 | 267 ft | 134 kts | 166° |
| 2026-04-29 20:48 | 63.03434 | 21.77277 | 572 ft | 158 kts | 166° |
| 2026-04-29 20:48 | 63.02376 | 21.78065 | 1093 ft | 168 kts | 163° |
| 2026-04-29 20:48 | 63.01208 | 21.78938 | 1394 ft | 188 kts | 166° |
| 2026-04-29 20:48 | 62.99949 | 21.79746 | 2034 ft | 184 kts | 168° |
| 2026-04-29 20:49 | 62.98741 | 21.80476 | 2828 ft | 177 kts | 167° |
| 2026-04-29 20:49 | 62.97543 | 21.81175 | 3419 ft | 183 kts | 167° |
| 2026-04-29 20:49 | 62.96236 | 21.81958 | 3672 ft | 208 kts | 166° |
| 2026-04-29 20:49 | 62.94756 | 21.82905 | 3746 ft | 234 kts | 165° |
| 2026-04-29 20:50 | 62.93150 | 21.83998 | 3961 ft | 246 kts | 164° |
| 2026-04-29 20:50 | 62.91501 | 21.85120 | 4334 ft | 249 kts | 164° |
| 2026-04-29 20:50 | 62.89842 | 21.86226 | 4737 ft | 250 kts | 163° |
| 2026-04-29 20:50 | 62.88179 | 21.87348 | 5127 ft | 250 kts | 162° |
| 2026-04-29 20:51 | 62.86651 | 21.89106 | 5512 ft | 248 kts | 144° |
| 2026-04-29 20:51 | 62.85244 | 21.91311 | 5901 ft | 249 kts | 142° |
| 2026-04-29 20:51 | 62.83855 | 21.93521 | 6280 ft | 251 kts | 143° |
| 2026-04-29 20:51 | 62.82399 | 21.95679 | 6716 ft | 257 kts | 145° |
| 2026-04-29 20:52 | 62.80850 | 21.97814 | 7006 ft | 268 kts | 147° |
| 2026-04-29 20:52 | 62.79256 | 21.99969 | 7426 ft | 270 kts | 147° |
| 2026-04-29 20:52 | 62.77650 | 22.02131 | 7877 ft | 271 kts | 147° |
| 2026-04-29 20:52 | 62.76042 | 22.04333 | 8283 ft | 276 kts | 146° |
| 2026-04-29 20:53 | 62.74414 | 22.06603 | 8681 ft | 279 kts | 146° |
| 2026-04-29 20:53 | 62.72760 | 22.08902 | 9077 ft | 283 kts | 146° |
| 2026-04-29 20:53 | 62.71092 | 22.11224 | 9480 ft | 286 kts | 146° |
| 2026-04-29 20:53 | 62.69403 | 22.13570 | 9883 ft | 289 kts | 146° |
| 2026-04-29 20:54 | 62.65992 | 22.18298 | 10636 ft | 293 kts | 145° |
| 2026-04-29 20:54 | 62.64260 | 22.20635 | 11003 ft | 294 kts | 149° |
| 2026-04-29 20:54 | 62.62399 | 22.22513 | 11372 ft | 296 kts | 157° |
| 2026-04-29 20:55 | 62.60473 | 22.24120 | 11748 ft | 297 kts | 158° |
| 2026-04-29 20:55 | 62.58529 | 22.25712 | 12127 ft | 299 kts | 157° |
| 2026-04-29 20:55 | 62.56598 | 22.27395 | 12515 ft | 300 kts | 155° |
| 2026-04-29 20:55 | 62.54676 | 22.29188 | 12907 ft | 301 kts | 154° |
| 2026-04-29 20:56 | 62.52779 | 22.30990 | 13298 ft | 302 kts | 154° |
| 2026-04-29 20:56 | 62.50845 | 22.32819 | 13707 ft | 304 kts | 154° |
| 2026-04-29 20:56 | 62.48895 | 22.34650 | 14104 ft | 306 kts | 154° |
| 2026-04-29 20:56 | 62.46933 | 22.36456 | 14469 ft | 307 kts | 154° |
| 2026-04-29 20:57 | 62.44962 | 22.38259 | 14831 ft | 308 kts | 154° |
| 2026-04-29 20:57 | 62.42985 | 22.40066 | 15204 ft | 309 kts | 154° |
| 2026-04-29 20:57 | 62.40998 | 22.41871 | 15574 ft | 310 kts | 154° |
| 2026-04-29 20:57 | 62.39004 | 22.43678 | 15960 ft | 311 kts | 154° |
| 2026-04-29 20:58 | 62.37010 | 22.45484 | 16368 ft | 311 kts | 154° |
| 2026-04-29 20:58 | 62.35014 | 22.47291 | 16764 ft | 311 kts | 154° |
| 2026-04-29 20:58 | 62.33013 | 22.49093 | 17095 ft | 314 kts | 154° |
| 2026-04-29 20:58 | 62.30959 | 22.50943 | 17177 ft | 325 kts | 154° |
| 2026-04-29 20:59 | 62.28837 | 22.52850 | 17214 ft | 335 kts | 154° |
| 2026-04-29 20:59 | 62.26662 | 22.54800 | 17230 ft | 343 kts | 154° |
| 2026-04-29 20:59 | 62.24440 | 22.56787 | 17238 ft | 349 kts | 155° |
| 2026-04-29 20:59 | 62.22177 | 22.58814 | 17242 ft | 354 kts | 155° |
| 2026-04-29 21:00 | 62.19888 | 22.60855 | 17223 ft | 358 kts | 155° |
| 2026-04-29 21:00 | 62.17577 | 22.62913 | 17237 ft | 361 kts | 155° |
| 2026-04-29 21:00 | 62.15256 | 22.64983 | 17242 ft | 363 kts | 155° |
| 2026-04-29 21:00 | 62.12916 | 22.67062 | 17245 ft | 365 kts | 155° |
| 2026-04-29 21:01 | 62.10570 | 22.69144 | 17244 ft | 366 kts | 155° |
| 2026-04-29 21:01 | 62.08217 | 22.71232 | 17254 ft | 367 kts | 155° |
| 2026-04-29 21:01 | 62.05860 | 22.73314 | 17250 ft | 367 kts | 155° |
| 2026-04-29 21:01 | 62.03499 | 22.75399 | 17242 ft | 368 kts | 155° |
| 2026-04-29 21:02 | 62.01161 | 22.77464 | 17243 ft | 368 kts | 155° |
| 2026-04-29 21:02 | 61.98764 | 22.79570 | 17244 ft | 368 kts | 155° |
| 2026-04-29 21:02 | 61.96392 | 22.81653 | 17250 ft | 369 kts | 155° |
| 2026-04-29 21:02 | 61.94048 | 22.83710 | 17275 ft | 369 kts | 155° |
| 2026-04-29 21:03 | 61.91673 | 22.85787 | 17263 ft | 369 kts | 155° |
| 2026-04-29 21:03 | 61.89299 | 22.87869 | 17256 ft | 369 kts | 154° |
| 2026-04-29 21:03 | 61.86921 | 22.89944 | 17250 ft | 369 kts | 155° |
| 2026-04-29 21:03 | 61.84552 | 22.92010 | 17252 ft | 369 kts | 155° |
| 2026-04-29 21:04 | 61.82181 | 22.94075 | 17246 ft | 369 kts | 155° |
| 2026-04-29 21:04 | 61.79810 | 22.96129 | 17248 ft | 368 kts | 154° |
| 2026-04-29 21:04 | 61.77440 | 22.98181 | 17251 ft | 368 kts | 154° |
| 2026-04-29 21:04 | 61.75072 | 23.00237 | 17252 ft | 368 kts | 154° |
| 2026-04-29 21:05 | 61.72706 | 23.02283 | 17254 ft | 367 kts | 154° |
| 2026-04-29 21:05 | 61.70338 | 23.04327 | 17251 ft | 367 kts | 154° |
| 2026-04-29 21:05 | 61.67974 | 23.06365 | 17251 ft | 367 kts | 154° |
| 2026-04-29 21:05 | 61.65606 | 23.08397 | 17259 ft | 367 kts | 154° |
| 2026-04-29 21:06 | 61.63242 | 23.10428 | 17259 ft | 367 kts | 154° |
| 2026-04-29 21:06 | 61.60879 | 23.12454 | 17260 ft | 367 kts | 155° |
| 2026-04-29 21:06 | 61.58510 | 23.14477 | 17261 ft | 367 kts | 155° |
| 2026-04-29 21:06 | 61.56143 | 23.16500 | 17260 ft | 367 kts | 154° |
| 2026-04-29 21:07 | 61.53779 | 23.18519 | 17291 ft | 367 kts | 154° |
| 2026-04-29 21:07 | 61.51434 | 23.20504 | 17275 ft | 368 kts | 154° |
| 2026-04-29 21:07 | 61.49060 | 23.22523 | 17268 ft | 368 kts | 154° |
| 2026-04-29 21:07 | 61.46656 | 23.24574 | 17263 ft | 368 kts | 154° |
| 2026-04-29 21:08 | 61.44311 | 23.26560 | 17268 ft | 368 kts | 154° |